Аэропорт: Оренбург-Центральный. Оренбург

ICAO: UWOO

METAR:
2022-06-26 11:30:00
UWOO 261130Z 34007MPS 310V010 9999 BKN040CB 25/06 Q1010 R26/////// NOSIG RMK QFE747/0996
METAR:
2022-06-26 07:43:00
TAF UWOO 260743Z 2609/2709 35006G14MPS 9999 BKN020 TX25/2612Z TN11/2701Z TEMPO 2609/2617 01010G17MPS BECMG 2617/2618 35003G08MPS BECMG 2706/2707 34006G12MPS